sensor_id;sensor_type;location;lat;lon;timestamp;pressure;altitude;pressure_sealevel;temperature;humidity
27980;BME280;15315;50.836;4.430;2023-03-04T00:07:01;102176.81;;;8.68;61.86
27980;BME280;15315;50.836;4.430;2023-03-04T00:17:01;102178.94;;;9.48;60.60
27980;BME280;15315;50.836;4.430;2023-03-04T00:27:03;102175.25;;;9.91;59.60
27980;BME280;15315;50.836;4.430;2023-03-04T00:37:03;102181.44;;;8.87;61.62
27980;BME280;15315;50.836;4.430;2023-03-04T00:47:04;102183.84;;;8.93;61.02
27980;BME280;15315;50.836;4.430;2023-03-04T00:57:05;102178.81;;;8.62;62.25
27980;BME280;15315;50.836;4.430;2023-03-04T01:07:06;102175.91;;;9.55;59.38
27980;BME280;15315;50.836;4.430;2023-03-04T01:17:06;102172.66;;;10.28;58.26
27980;BME280;15315;50.836;4.430;2023-03-04T01:27:07;102166.78;;;10.00;58.80
27980;BME280;15315;50.836;4.430;2023-03-04T01:37:08;102152.31;;;9.82;59.08
27980;BME280;15315;50.836;4.430;2023-03-04T01:47:08;102147.84;;;9.81;59.92
27980;BME280;15315;50.836;4.430;2023-03-04T01:57:17;102125.34;;;10.21;59.33
27980;BME280;15315;50.836;4.430;2023-03-04T02:07:18;102108.72;;;10.31;58.49
27980;BME280;15315;50.836;4.430;2023-03-04T02:17:26;102106.94;;;10.12;59.37
27980;BME280;15315;50.836;4.430;2023-03-04T02:27:27;102100.94;;;10.44;58.42
27980;BME280;15315;50.836;4.430;2023-03-04T02:37:27;102078.63;;;9.83;59.16
27980;BME280;15315;50.836;4.430;2023-03-04T02:47:27;102067.38;;;10.12;58.98
27980;BME280;15315;50.836;4.430;2023-03-04T02:57:28;102067.34;;;10.32;58.97
27980;BME280;15315;50.836;4.430;2023-03-04T03:07:28;102059.72;;;9.84;60.02
27980;BME280;15315;50.836;4.430;2023-03-04T03:17:29;102063.88;;;9.92;60.02
27980;BME280;15315;50.836;4.430;2023-03-04T03:27:29;102072.25;;;10.04;59.65
27980;BME280;15315;50.836;4.430;2023-03-04T03:37:30;102064.94;;;10.45;58.93
27980;BME280;15315;50.836;4.430;2023-03-04T03:47:30;102074.78;;;9.88;60.28
27980;BME280;15315;50.836;4.430;2023-03-04T03:57:31;102078.00;;;9.97;60.68
27980;BME280;15315;50.836;4.430;2023-03-04T04:07:31;102080.84;;;9.94;60.28
27980;BME280;15315;50.836;4.430;2023-03-04T04:17:31;102086.19;;;9.35;61.52
27980;BME280;15315;50.836;4.430;2023-03-04T04:27:32;102080.22;;;10.07;59.76
27980;BME280;15315;50.836;4.430;2023-03-04T04:37:32;102068.13;;;9.57;61.62
27980;BME280;15315;50.836;4.430;2023-03-04T04:47:33;102071.38;;;10.04;59.89
27980;BME280;15315;50.836;4.430;2023-03-04T04:57:33;102075.59;;;10.48;59.34
27980;BME280;15315;50.836;4.430;2023-03-04T05:07:34;102084.53;;;9.91;60.98
27980;BME280;15315;50.836;4.430;2023-03-04T05:17:34;102083.72;;;10.65;59.09
27980;BME280;15315;50.836;4.430;2023-03-04T05:27:34;102087.31;;;10.47;59.16
27980;BME280;15315;50.836;4.430;2023-03-04T05:37:35;102074.13;;;9.83;61.96
27980;BME280;15315;50.836;4.430;2023-03-04T05:47:35;102074.75;;;9.30;63.90
27980;BME280;15315;50.836;4.430;2023-03-04T05:57:36;102076.63;;;9.07;64.69
27980;BME280;15315;50.836;4.430;2023-03-04T06:07:36;102087.41;;;9.28;63.88
27980;BME280;15315;50.836;4.430;2023-03-04T06:17:38;102088.09;;;8.46;66.71
27980;BME280;15315;50.836;4.430;2023-03-04T06:27:39;102094.91;;;9.41;64.66
27980;BME280;15315;50.836;4.430;2023-03-04T06:37:40;102114.53;;;9.23;63.54
27980;BME280;15315;50.836;4.430;2023-03-04T06:47:40;102121.56;;;9.04;65.54
27980;BME280;15315;50.836;4.430;2023-03-04T06:57:40;102128.44;;;8.68;66.94
27980;BME280;15315;50.836;4.430;2023-03-04T07:07:41;102129.81;;;9.43;64.63
27980;BME280;15315;50.836;4.430;2023-03-04T07:17:41;102131.56;;;8.57;67.55
27980;BME280;15315;50.836;4.430;2023-03-04T07:27:42;102141.13;;;8.64;67.92
27980;BME280;15315;50.836;4.430;2023-03-04T07:37:42;102149.53;;;8.55;69.21
27980;BME280;15315;50.836;4.430;2023-03-04T07:47:43;102160.50;;;9.17;67.70
27980;BME280;15315;50.836;4.430;2023-03-04T07:57:46;102160.78;;;8.88;68.22
27980;BME280;15315;50.836;4.430;2023-03-04T08:07:46;102168.47;;;8.97;68.07
27980;BME280;15315;50.836;4.430;2023-03-04T08:17:47;102182.50;;;9.27;66.15
27980;BME280;15315;50.836;4.430;2023-03-04T08:27:47;102180.41;;;9.13;67.12
27980;BME280;15315;50.836;4.430;2023-03-04T08:37:47;102199.09;;;9.38;65.16
27980;BME280;15315;50.836;4.430;2023-03-04T08:47:49;102193.25;;;10.49;62.95
27980;BME280;15315;50.836;4.430;2023-03-04T08:57:50;102185.09;;;10.69;63.27
27980;BME280;15315;50.836;4.430;2023-03-04T09:07:50;102187.78;;;9.51;67.94
27980;BME280;15315;50.836;4.430;2023-03-04T09:17:51;102188.56;;;10.34;65.54
27980;BME280;15315;50.836;4.430;2023-03-04T09:27:51;102177.16;;;9.47;67.87
27980;BME280;15315;50.836;4.430;2023-03-04T09:37:51;102176.41;;;10.44;64.54
27980;BME280;15315;50.836;4.430;2023-03-04T09:47:53;102174.28;;;10.32;64.78
27980;BME280;15315;50.836;4.430;2023-03-04T09:58:02;102172.94;;;9.41;68.66
27980;BME280;15315;50.836;4.430;2023-03-04T10:18:36;102167.53;;;10.98;63.58
27980;BME280;15315;50.836;4.430;2023-03-04T10:28:38;102164.28;;;11.08;64.55
27980;BME280;15315;50.836;4.430;2023-03-04T10:38:40;102167.44;;;11.71;64.06
27980;BME280;15315;50.836;4.430;2023-03-04T10:48:42;102150.63;;;12.31;61.74
27980;BME280;15315;50.836;4.430;2023-03-04T10:58:43;102169.47;;;11.49;65.04
27980;BME280;15315;50.836;4.430;2023-03-04T11:08:52;102162.34;;;11.12;64.09
27980;BME280;15315;50.836;4.430;2023-03-04T11:18:58;102150.66;;;11.11;63.51
27980;BME280;15315;50.836;4.430;2023-03-04T11:29:06;102140.31;;;9.89;69.21
27980;BME280;15315;50.836;4.430;2023-03-04T12:51:57;102038.56;;;13.14;61.02
27980;BME280;15315;50.836;4.430;2023-03-04T13:12:26;102028.84;;;12.49;61.26
27980;BME280;15315;50.836;4.430;2023-03-04T13:32:35;101997.88;;;11.59;64.46
27980;BME280;15315;50.836;4.430;2023-03-04T13:42:41;101991.84;;;12.49;62.44
27980;BME280;15315;50.836;4.430;2023-03-04T13:52:42;101981.81;;;12.67;62.11
27980;BME280;15315;50.836;4.430;2023-03-04T14:02:43;101979.56;;;11.97;63.27
27980;BME280;15315;50.836;4.430;2023-03-04T14:12:47;101967.69;;;12.46;63.23
27980;BME280;15315;50.836;4.430;2023-03-04T14:22:50;101963.25;;;11.98;65.36
27980;BME280;15315;50.836;4.430;2023-03-04T14:32:52;101958.25;;;11.59;67.15
27980;BME280;15315;50.836;4.430;2023-03-04T14:42:57;101945.97;;;12.48;65.27
27980;BME280;15315;50.836;4.430;2023-03-04T14:53:12;101936.06;;;11.86;68.12
27980;BME280;15315;50.836;4.430;2023-03-04T15:03:28;101928.72;;;11.88;67.88
27980;BME280;15315;50.836;4.430;2023-03-04T15:23:42;101929.84;;;9.97;88.63
27980;BME280;15315;50.836;4.430;2023-03-04T15:33:44;101912.84;;;11.50;79.41
27980;BME280;15315;50.836;4.430;2023-03-04T15:43:44;101906.19;;;10.90;81.19
27980;BME280;15315;50.836;4.430;2023-03-04T15:53:47;101893.44;;;11.75;76.38
27980;BME280;15315;50.836;4.430;2023-03-04T16:03:48;101882.34;;;12.56;73.29
27980;BME280;15315;50.836;4.430;2023-03-04T16:13:48;101879.13;;;12.79;70.98
27980;BME280;15315;50.836;4.430;2023-03-04T16:23:50;101877.81;;;13.01;69.16
27980;BME280;15315;50.836;4.430;2023-03-04T16:33:51;101874.06;;;12.44;70.23
27980;BME280;15315;50.836;4.430;2023-03-04T16:43:51;101883.09;;;10.85;76.37
27980;BME280;15315;50.836;4.430;2023-03-04T16:53:57;101865.00;;;10.70;80.04
27980;BME280;15315;50.836;4.430;2023-03-04T17:03:59;101864.25;;;11.00;79.02
27980;BME280;15315;50.836;4.430;2023-03-04T17:13:59;101858.22;;;11.28;78.59
27980;BME280;15315;50.836;4.430;2023-03-04T17:24:00;101870.69;;;9.58;93.17
27980;BME280;15315;50.836;4.430;2023-03-04T17:34:02;101871.28;;;10.70;87.58
27980;BME280;15315;50.836;4.430;2023-03-04T17:44:02;101868.66;;;10.52;87.92
27980;BME280;15315;50.836;4.430;2023-03-04T17:54:04;101866.63;;;11.06;84.09
27980;BME280;15315;50.836;4.430;2023-03-04T18:04:05;101883.09;;;10.33;89.67
27980;BME280;15315;50.836;4.430;2023-03-04T18:14:08;101880.09;;;8.90;100.00
27980;BME280;15315;50.836;4.430;2023-03-04T18:24:11;101891.47;;;9.92;94.32
27980;BME280;15315;50.836;4.430;2023-03-04T18:34:15;101896.81;;;9.56;99.88
27980;BME280;15315;50.836;4.430;2023-03-04T18:44:15;101901.38;;;9.35;100.00
27980;BME280;15315;50.836;4.430;2023-03-04T18:54:15;101899.50;;;9.74;94.57
27980;BME280;15315;50.836;4.430;2023-03-04T19:04:18;101899.84;;;9.30;94.37
27980;BME280;15315;50.836;4.430;2023-03-04T19:14:21;101899.56;;;9.54;90.89
27980;BME280;15315;50.836;4.430;2023-03-04T19:24:21;101905.44;;;9.81;84.52
27980;BME280;15315;50.836;4.430;2023-03-04T19:34:21;101901.94;;;9.98;84.12
27980;BME280;15315;50.836;4.430;2023-03-04T19:44:22;101900.63;;;9.87;80.66
27980;BME280;15315;50.836;4.430;2023-03-04T19:54:23;101900.44;;;9.92;79.44
27980;BME280;15315;50.836;4.430;2023-03-04T20:04:24;101898.06;;;9.49;79.02
27980;BME280;15315;50.836;4.430;2023-03-04T20:14:25;101893.56;;;9.29;80.65
27980;BME280;15315;50.836;4.430;2023-03-04T20:24:26;101884.63;;;9.47;78.11
27980;BME280;15315;50.836;4.430;2023-03-04T20:34:26;101891.78;;;9.48;78.66
27980;BME280;15315;50.836;4.430;2023-03-04T20:44:27;101898.72;;;10.08;75.67
27980;BME280;15315;50.836;4.430;2023-03-04T20:54:28;101895.50;;;10.00;77.50
27980;BME280;15315;50.836;4.430;2023-03-04T21:04:29;101881.97;;;9.29;79.45
27980;BME280;15315;50.836;4.430;2023-03-04T21:14:30;101884.78;;;9.26;77.56
27980;BME280;15315;50.836;4.430;2023-03-04T21:24:34;101874.16;;;10.50;73.32
27980;BME280;15315;50.836;4.430;2023-03-04T21:34:44;101873.59;;;10.43;72.45
27980;BME280;15315;50.836;4.430;2023-03-04T21:44:45;101877.44;;;9.48;73.99
27980;BME280;15315;50.836;4.430;2023-03-04T21:54:46;101872.19;;;9.07;76.61
27980;BME280;15315;50.836;4.430;2023-03-04T22:04:49;101868.44;;;9.49;74.11
27980;BME280;15315;50.836;4.430;2023-03-04T22:14:53;101848.91;;;9.62;73.31
27980;BME280;15315;50.836;4.430;2023-03-04T22:24:53;101856.56;;;9.15;75.59
27980;BME280;15315;50.836;4.430;2023-03-04T22:34:53;101839.91;;;9.45;75.83
27980;BME280;15315;50.836;4.430;2023-03-04T22:44:54;101828.50;;;8.62;79.45
27980;BME280;15315;50.836;4.430;2023-03-04T22:54:54;101834.06;;;8.57;82.54
27980;BME280;15315;50.836;4.430;2023-03-04T23:04:56;101834.03;;;8.39;80.23
27980;BME280;15315;50.836;4.430;2023-03-04T23:14:57;101822.56;;;10.05;73.62
27980;BME280;15315;50.836;4.430;2023-03-04T23:24:58;101820.94;;;9.83;74.64
27980;BME280;15315;50.836;4.430;2023-03-04T23:34:58;101820.25;;;10.33;71.55
27980;BME280;15315;50.836;4.430;2023-03-04T23:44:58;101816.63;;;10.84;69.21
27980;BME280;15315;50.836;4.430;2023-03-04T23:54:59;101811.63;;;10.76;68.40
